aviador You're here:

KCSM Decoded Metar

CLINTON in OK, USA
Report Time2017-04-25 05:53:00
UTC Time2017-04-25 06:33:59
Flight Rules vfr VFR
Wind170° at 19 kt
W.Decomp.*RWY 17: 18.8 kt HW 2.6 kt LCW
W.Rank170° ranks 2
Current wind is above 170° avg. (13.7)
Visibility9999 m
Phenomena:N/A
Clouds:N/A
Expected CloudBase > 3,200 ft AGL from Temp-Dew spread
CeilingNone
Temp18°C (ISA +7)
Dew Point10°C (60% RH)
AAT11.2°C
QNH998 hPa
Density Alt3,409 ft
Elevation1,929 ft
Report Wrong Elevation
Raw Report
KCSM 250553Z 17019KT 10SM CLR 18/10 A2947 RMK AO2 PK WND
17030/0458 SLP959 T01780100 10244 20178 402560100 58015=

Extra information for KCSM:More info

Metar Taf Metar & Taf Last 4 Metars F.Rules Stats Wind Profile Meteogram Temp Stats Airport Information Weather charts Add Link Nearby VenuesMetar ALERT Operation Metar Decoded Social comments

AIRNAV info for KCSM